sensor_id;sensor_type;location;lat;lon;timestamp;temperature;humidity
16781;DHT22;8507;50.056;8.248;2023-03-01T00:00:40;0.90;99.90
16781;DHT22;8507;50.056;8.248;2023-03-01T00:03:06;0.80;99.90
16781;DHT22;8507;50.056;8.248;2023-03-01T00:05:32;0.80;99.90
16781;DHT22;8507;50.056;8.248;2023-03-01T00:07:58;0.80;99.90
16781;DHT22;8507;50.056;8.248;2023-03-01T00:10:23;0.80;99.90
16781;DHT22;8507;50.056;8.248;2023-03-01T00:12:49;0.80;99.90
16781;DHT22;8507;50.056;8.248;2023-03-01T00:15:15;0.70;99.90
16781;DHT22;8507;50.056;8.248;2023-03-01T00:17:40;0.80;99.90
16781;DHT22;8507;50.056;8.248;2023-03-01T00:20:07;0.70;99.90
16781;DHT22;8507;50.056;8.248;2023-03-01T00:22:36;0.70;99.90
16781;DHT22;8507;50.056;8.248;2023-03-01T00:25:03;0.80;99.90
16781;DHT22;8507;50.056;8.248;2023-03-01T00:27:28;0.80;99.90
16781;DHT22;8507;50.056;8.248;2023-03-01T00:29:54;0.80;99.90
16781;DHT22;8507;50.056;8.248;2023-03-01T00:32:20;0.80;99.90
16781;DHT22;8507;50.056;8.248;2023-03-01T00:34:45;0.80;99.90
16781;DHT22;8507;50.056;8.248;2023-03-01T00:37:22;0.80;99.90
16781;DHT22;8507;50.056;8.248;2023-03-01T00:39:48;0.80;99.90
16781;DHT22;8507;50.056;8.248;2023-03-01T00:42:13;0.90;99.90
16781;DHT22;8507;50.056;8.248;2023-03-01T00:44:39;0.90;99.90
16781;DHT22;8507;50.056;8.248;2023-03-01T00:47:04;0.80;99.90
16781;DHT22;8507;50.056;8.248;2023-03-01T00:49:30;0.80;99.90
16781;DHT22;8507;50.056;8.248;2023-03-01T00:51:56;0.90;99.90
16781;DHT22;8507;50.056;8.248;2023-03-01T00:54:21;0.90;99.90
16781;DHT22;8507;50.056;8.248;2023-03-01T00:56:47;0.90;99.90
16781;DHT22;8507;50.056;8.248;2023-03-01T00:59:12;0.80;99.90
16781;DHT22;8507;50.056;8.248;2023-03-01T01:01:38;0.80;99.90
16781;DHT22;8507;50.056;8.248;2023-03-01T01:04:06;0.80;99.90
16781;DHT22;8507;50.056;8.248;2023-03-01T01:06:35;0.80;99.90
16781;DHT22;8507;50.056;8.248;2023-03-01T01:09:04;0.80;99.90
16781;DHT22;8507;50.056;8.248;2023-03-01T01:11:30;0.70;99.90
16781;DHT22;8507;50.056;8.248;2023-03-01T01:13:57;0.80;99.90
16781;DHT22;8507;50.056;8.248;2023-03-01T01:16:24;0.80;99.90
16781;DHT22;8507;50.056;8.248;2023-03-01T01:18:51;0.80;99.90
16781;DHT22;8507;50.056;8.248;2023-03-01T01:21:20;0.70;99.90
16781;DHT22;8507;50.056;8.248;2023-03-01T01:23:47;0.80;99.90
16781;DHT22;8507;50.056;8.248;2023-03-01T01:26:16;0.80;99.90
16781;DHT22;8507;50.056;8.248;2023-03-01T01:28:41;0.80;99.90
16781;DHT22;8507;50.056;8.248;2023-03-01T01:31:07;0.80;99.90
16781;DHT22;8507;50.056;8.248;2023-03-01T01:33:33;0.90;99.90
16781;DHT22;8507;50.056;8.248;2023-03-01T01:35:59;0.80;99.90
16781;DHT22;8507;50.056;8.248;2023-03-01T01:38:25;0.80;99.90
16781;DHT22;8507;50.056;8.248;2023-03-01T01:40:51;0.90;99.90
16781;DHT22;8507;50.056;8.248;2023-03-01T01:43:38;0.90;99.90
16781;DHT22;8507;50.056;8.248;2023-03-01T01:46:07;1.00;99.90
16781;DHT22;8507;50.056;8.248;2023-03-01T01:48:41;1.00;99.90
16781;DHT22;8507;50.056;8.248;2023-03-01T01:51:14;1.00;99.90
16781;DHT22;8507;50.056;8.248;2023-03-01T01:53:43;1.00;99.90
16781;DHT22;8507;50.056;8.248;2023-03-01T01:56:11;1.00;99.90
16781;DHT22;8507;50.056;8.248;2023-03-01T01:58:38;1.00;99.90
16781;DHT22;8507;50.056;8.248;2023-03-01T02:01:05;1.00;99.90
16781;DHT22;8507;50.056;8.248;2023-03-01T02:03:32;1.00;99.90
16781;DHT22;8507;50.056;8.248;2023-03-01T02:08:46;1.00;99.90
16781;DHT22;8507;50.056;8.248;2023-03-01T02:11:12;0.90;99.90
16781;DHT22;8507;50.056;8.248;2023-03-01T02:13:40;1.00;99.90
16781;DHT22;8507;50.056;8.248;2023-03-01T02:16:10;1.00;99.90
16781;DHT22;8507;50.056;8.248;2023-03-01T02:18:37;0.90;99.90
16781;DHT22;8507;50.056;8.248;2023-03-01T02:23:47;1.00;99.90
16781;DHT22;8507;50.056;8.248;2023-03-01T02:26:42;0.90;99.90
16781;DHT22;8507;50.056;8.248;2023-03-01T02:29:10;1.00;99.90
16781;DHT22;8507;50.056;8.248;2023-03-01T02:31:36;0.90;99.90
16781;DHT22;8507;50.056;8.248;2023-03-01T02:34:21;1.00;99.90
16781;DHT22;8507;50.056;8.248;2023-03-01T02:36:49;1.00;99.90
16781;DHT22;8507;50.056;8.248;2023-03-01T02:39:23;1.00;99.90
16781;DHT22;8507;50.056;8.248;2023-03-01T02:41:54;1.00;99.90
16781;DHT22;8507;50.056;8.248;2023-03-01T02:44:20;1.00;99.90
16781;DHT22;8507;50.056;8.248;2023-03-01T02:46:51;1.00;99.90
16781;DHT22;8507;50.056;8.248;2023-03-01T02:49:21;1.00;99.90
16781;DHT22;8507;50.056;8.248;2023-03-01T02:52:21;1.00;99.90
16781;DHT22;8507;50.056;8.248;2023-03-01T02:54:53;1.00;99.90
16781;DHT22;8507;50.056;8.248;2023-03-01T02:57:19;1.00;99.90
16781;DHT22;8507;50.056;8.248;2023-03-01T02:59:47;1.10;99.90
16781;DHT22;8507;50.056;8.248;2023-03-01T03:02:25;1.10;99.90
16781;DHT22;8507;50.056;8.248;2023-03-01T03:05:13;1.10;99.90
16781;DHT22;8507;50.056;8.248;2023-03-01T03:07:42;1.10;99.90
16781;DHT22;8507;50.056;8.248;2023-03-01T03:10:12;1.10;99.90
16781;DHT22;8507;50.056;8.248;2023-03-01T03:12:38;1.10;99.90
16781;DHT22;8507;50.056;8.248;2023-03-01T03:15:05;1.10;99.90
16781;DHT22;8507;50.056;8.248;2023-03-01T03:17:35;1.10;99.90
16781;DHT22;8507;50.056;8.248;2023-03-01T03:20:02;1.10;99.90
16781;DHT22;8507;50.056;8.248;2023-03-01T03:22:29;1.10;99.90
16781;DHT22;8507;50.056;8.248;2023-03-01T03:24:54;1.10;99.90
16781;DHT22;8507;50.056;8.248;2023-03-01T03:27:20;1.10;99.90
16781;DHT22;8507;50.056;8.248;2023-03-01T03:29:45;1.10;99.90
16781;DHT22;8507;50.056;8.248;2023-03-01T03:32:11;1.00;99.90
16781;DHT22;8507;50.056;8.248;2023-03-01T03:34:36;1.00;99.90
16781;DHT22;8507;50.056;8.248;2023-03-01T03:37:02;1.00;99.90
16781;DHT22;8507;50.056;8.248;2023-03-01T03:39:28;1.00;99.90
16781;DHT22;8507;50.056;8.248;2023-03-01T03:41:54;1.00;99.90
16781;DHT22;8507;50.056;8.248;2023-03-01T03:44:20;1.00;99.90
16781;DHT22;8507;50.056;8.248;2023-03-01T03:46:46;0.90;99.90
16781;DHT22;8507;50.056;8.248;2023-03-01T03:49:11;0.90;99.90
16781;DHT22;8507;50.056;8.248;2023-03-01T03:51:37;0.90;99.90
16781;DHT22;8507;50.056;8.248;2023-03-01T03:54:02;0.90;99.90
16781;DHT22;8507;50.056;8.248;2023-03-01T03:56:28;0.90;99.90
16781;DHT22;8507;50.056;8.248;2023-03-01T03:58:53;0.80;99.90
16781;DHT22;8507;50.056;8.248;2023-03-01T04:01:19;0.80;99.90
16781;DHT22;8507;50.056;8.248;2023-03-01T04:03:45;0.80;99.90
16781;DHT22;8507;50.056;8.248;2023-03-01T04:06:14;0.90;99.90
16781;DHT22;8507;50.056;8.248;2023-03-01T04:08:40;0.80;99.90
16781;DHT22;8507;50.056;8.248;2023-03-01T04:11:06;0.80;99.90
16781;DHT22;8507;50.056;8.248;2023-03-01T04:13:51;0.80;99.90
16781;DHT22;8507;50.056;8.248;2023-03-01T04:16:18;0.80;99.90
16781;DHT22;8507;50.056;8.248;2023-03-01T04:18:44;0.80;99.90
16781;DHT22;8507;50.056;8.248;2023-03-01T04:21:10;0.70;99.90
16781;DHT22;8507;50.056;8.248;2023-03-01T04:23:36;0.70;99.90
16781;DHT22;8507;50.056;8.248;2023-03-01T04:26:02;0.70;99.90
16781;DHT22;8507;50.056;8.248;2023-03-01T04:28:32;0.80;99.90
16781;DHT22;8507;50.056;8.248;2023-03-01T04:31:09;0.80;99.90
16781;DHT22;8507;50.056;8.248;2023-03-01T04:33:58;0.70;99.90
16781;DHT22;8507;50.056;8.248;2023-03-01T04:36:27;0.70;99.90
16781;DHT22;8507;50.056;8.248;2023-03-01T04:38:53;0.70;99.90
16781;DHT22;8507;50.056;8.248;2023-03-01T04:41:21;0.70;99.90
16781;DHT22;8507;50.056;8.248;2023-03-01T04:43:46;0.60;99.90
16781;DHT22;8507;50.056;8.248;2023-03-01T04:46:14;0.70;99.90
16781;DHT22;8507;50.056;8.248;2023-03-01T04:48:41;0.60;99.90
16781;DHT22;8507;50.056;8.248;2023-03-01T04:51:07;0.60;99.90
16781;DHT22;8507;50.056;8.248;2023-03-01T04:53:34;0.70;99.90
16781;DHT22;8507;50.056;8.248;2023-03-01T04:56:02;0.60;99.90
16781;DHT22;8507;50.056;8.248;2023-03-01T04:58:28;0.60;99.90
16781;DHT22;8507;50.056;8.248;2023-03-01T05:00:54;0.60;99.90
16781;DHT22;8507;50.056;8.248;2023-03-01T05:03:20;0.60;99.90
16781;DHT22;8507;50.056;8.248;2023-03-01T05:05:48;0.60;99.90
16781;DHT22;8507;50.056;8.248;2023-03-01T05:08:14;0.60;99.90
16781;DHT22;8507;50.056;8.248;2023-03-01T05:10:45;0.60;99.90
16781;DHT22;8507;50.056;8.248;2023-03-01T05:13:12;0.60;99.90
16781;DHT22;8507;50.056;8.248;2023-03-01T05:15:39;0.60;99.90
16781;DHT22;8507;50.056;8.248;2023-03-01T05:18:05;0.60;99.90
16781;DHT22;8507;50.056;8.248;2023-03-01T05:20:37;0.60;99.90
16781;DHT22;8507;50.056;8.248;2023-03-01T05:23:03;0.60;99.90
16781;DHT22;8507;50.056;8.248;2023-03-01T05:25:31;0.60;99.90
16781;DHT22;8507;50.056;8.248;2023-03-01T05:27:58;0.60;99.90
16781;DHT22;8507;50.056;8.248;2023-03-01T05:30:24;0.60;99.90
16781;DHT22;8507;50.056;8.248;2023-03-01T05:32:50;0.50;99.90
16781;DHT22;8507;50.056;8.248;2023-03-01T05:35:21;0.50;99.90
16781;DHT22;8507;50.056;8.248;2023-03-01T05:37:48;0.50;99.90
16781;DHT22;8507;50.056;8.248;2023-03-01T05:40:23;0.40;99.90
16781;DHT22;8507;50.056;8.248;2023-03-01T05:42:55;0.40;99.90
16781;DHT22;8507;50.056;8.248;2023-03-01T05:45:22;0.40;99.90
16781;DHT22;8507;50.056;8.248;2023-03-01T05:47:49;0.50;99.90
16781;DHT22;8507;50.056;8.248;2023-03-01T05:50:27;0.50;99.90
16781;DHT22;8507;50.056;8.248;2023-03-01T05:52:59;0.50;99.90
16781;DHT22;8507;50.056;8.248;2023-03-01T05:55:25;0.50;99.90
16781;DHT22;8507;50.056;8.248;2023-03-01T05:57:51;0.60;99.90
16781;DHT22;8507;50.056;8.248;2023-03-01T06:00:18;0.60;99.90
16781;DHT22;8507;50.056;8.248;2023-03-01T06:02:45;0.60;99.90
16781;DHT22;8507;50.056;8.248;2023-03-01T06:05:12;0.70;99.90
16781;DHT22;8507;50.056;8.248;2023-03-01T06:07:38;0.70;99.90
16781;DHT22;8507;50.056;8.248;2023-03-01T06:10:05;0.70;99.90
16781;DHT22;8507;50.056;8.248;2023-03-01T06:12:35;0.70;99.90
16781;DHT22;8507;50.056;8.248;2023-03-01T06:15:01;0.70;99.90
16781;DHT22;8507;50.056;8.248;2023-03-01T06:17:29;0.80;99.90
16781;DHT22;8507;50.056;8.248;2023-03-01T06:19:55;0.80;99.90
16781;DHT22;8507;50.056;8.248;2023-03-01T06:22:20;0.80;99.90
16781;DHT22;8507;50.056;8.248;2023-03-01T06:24:46;0.80;99.90
16781;DHT22;8507;50.056;8.248;2023-03-01T06:27:11;0.90;99.90
16781;DHT22;8507;50.056;8.248;2023-03-01T06:29:37;1.00;99.90
16781;DHT22;8507;50.056;8.248;2023-03-01T06:32:03;1.00;99.90
16781;DHT22;8507;50.056;8.248;2023-03-01T06:34:29;1.10;99.90
16781;DHT22;8507;50.056;8.248;2023-03-01T06:36:54;1.10;99.90
16781;DHT22;8507;50.056;8.248;2023-03-01T06:39:20;1.20;99.90
16781;DHT22;8507;50.056;8.248;2023-03-01T06:41:45;1.20;99.90
16781;DHT22;8507;50.056;8.248;2023-03-01T06:44:11;1.20;99.90
16781;DHT22;8507;50.056;8.248;2023-03-01T06:46:36;1.30;99.90
16781;DHT22;8507;50.056;8.248;2023-03-01T06:49:02;1.30;99.90
16781;DHT22;8507;50.056;8.248;2023-03-01T06:51:32;1.30;99.90
16781;DHT22;8507;50.056;8.248;2023-03-01T06:53:58;1.30;99.90
16781;DHT22;8507;50.056;8.248;2023-03-01T06:56:23;1.40;99.90
16781;DHT22;8507;50.056;8.248;2023-03-01T06:58:49;1.40;99.90
16781;DHT22;8507;50.056;8.248;2023-03-01T07:01:15;1.50;99.90
16781;DHT22;8507;50.056;8.248;2023-03-01T07:03:40;1.50;99.90
16781;DHT22;8507;50.056;8.248;2023-03-01T07:06:06;1.60;99.90
16781;DHT22;8507;50.056;8.248;2023-03-01T07:08:31;1.70;99.90
16781;DHT22;8507;50.056;8.248;2023-03-01T07:10:58;1.70;99.90
16781;DHT22;8507;50.056;8.248;2023-03-01T07:13:25;1.80;99.90
16781;DHT22;8507;50.056;8.248;2023-03-01T07:15:50;1.80;99.90
16781;DHT22;8507;50.056;8.248;2023-03-01T07:18:16;1.80;99.90
16781;DHT22;8507;50.056;8.248;2023-03-01T07:20:41;1.90;99.90
16781;DHT22;8507;50.056;8.248;2023-03-01T07:23:07;1.90;99.90
16781;DHT22;8507;50.056;8.248;2023-03-01T07:25:33;1.90;99.90
16781;DHT22;8507;50.056;8.248;2023-03-01T07:27:59;2.00;99.90
16781;DHT22;8507;50.056;8.248;2023-03-01T07:30:25;2.00;99.90
16781;DHT22;8507;50.056;8.248;2023-03-01T07:32:52;2.00;99.90
16781;DHT22;8507;50.056;8.248;2023-03-01T07:35:18;2.10;99.90
16781;DHT22;8507;50.056;8.248;2023-03-01T07:37:44;2.20;99.90
16781;DHT22;8507;50.056;8.248;2023-03-01T07:40:10;2.20;99.90
16781;DHT22;8507;50.056;8.248;2023-03-01T07:42:37;2.30;99.90
16781;DHT22;8507;50.056;8.248;2023-03-01T07:45:04;2.40;99.90
16781;DHT22;8507;50.056;8.248;2023-03-01T07:47:30;2.60;99.90
16781;DHT22;8507;50.056;8.248;2023-03-01T07:49:56;2.60;99.90
16781;DHT22;8507;50.056;8.248;2023-03-01T07:52:21;2.60;99.90
16781;DHT22;8507;50.056;8.248;2023-03-01T07:54:47;2.80;99.90
16781;DHT22;8507;50.056;8.248;2023-03-01T07:57:12;2.80;99.90
16781;DHT22;8507;50.056;8.248;2023-03-01T07:59:38;2.90;99.90
16781;DHT22;8507;50.056;8.248;2023-03-01T08:02:03;3.10;99.90
16781;DHT22;8507;50.056;8.248;2023-03-01T08:04:31;3.30;99.90
16781;DHT22;8507;50.056;8.248;2023-03-01T08:06:56;3.40;99.90
16781;DHT22;8507;50.056;8.248;2023-03-01T08:09:22;3.20;99.90
16781;DHT22;8507;50.056;8.248;2023-03-01T08:11:48;3.20;99.90
16781;DHT22;8507;50.056;8.248;2023-03-01T08:14:13;3.30;99.90
16781;DHT22;8507;50.056;8.248;2023-03-01T08:16:39;3.50;99.90
16781;DHT22;8507;50.056;8.248;2023-03-01T08:19:06;3.30;99.90
16781;DHT22;8507;50.056;8.248;2023-03-01T08:21:32;3.40;99.90
16781;DHT22;8507;50.056;8.248;2023-03-01T08:24:00;3.80;99.90
16781;DHT22;8507;50.056;8.248;2023-03-01T08:26:26;3.90;99.90
16781;DHT22;8507;50.056;8.248;2023-03-01T08:28:51;3.90;99.90
16781;DHT22;8507;50.056;8.248;2023-03-01T08:31:18;3.80;99.90
16781;DHT22;8507;50.056;8.248;2023-03-01T08:33:45;3.80;99.90
16781;DHT22;8507;50.056;8.248;2023-03-01T08:36:16;3.90;99.90
16781;DHT22;8507;50.056;8.248;2023-03-01T08:38:42;4.10;99.90
16781;DHT22;8507;50.056;8.248;2023-03-01T08:41:07;4.10;99.90
16781;DHT22;8507;50.056;8.248;2023-03-01T08:43:33;3.90;99.90
16781;DHT22;8507;50.056;8.248;2023-03-01T08:45:58;4.10;99.90
16781;DHT22;8507;50.056;8.248;2023-03-01T08:48:25;4.00;99.90
16781;DHT22;8507;50.056;8.248;2023-03-01T08:50:50;4.20;99.90
16781;DHT22;8507;50.056;8.248;2023-03-01T08:53:16;4.20;99.90
16781;DHT22;8507;50.056;8.248;2023-03-01T08:55:41;4.20;99.90
16781;DHT22;8507;50.056;8.248;2023-03-01T08:58:07;4.10;99.90
16781;DHT22;8507;50.056;8.248;2023-03-01T09:00:32;4.10;99.90
16781;DHT22;8507;50.056;8.248;2023-03-01T09:03:00;4.30;99.90
16781;DHT22;8507;50.056;8.248;2023-03-01T09:05:25;4.40;99.90
16781;DHT22;8507;50.056;8.248;2023-03-01T09:07:51;4.40;99.90
16781;DHT22;8507;50.056;8.248;2023-03-01T09:10:17;4.60;99.90
16781;DHT22;8507;50.056;8.248;2023-03-01T09:12:42;4.60;99.90
16781;DHT22;8507;50.056;8.248;2023-03-01T09:15:08;4.40;99.90
16781;DHT22;8507;50.056;8.248;2023-03-01T09:17:34;4.70;99.90
16781;DHT22;8507;50.056;8.248;2023-03-01T09:19:59;4.60;99.90
16781;DHT22;8507;50.056;8.248;2023-03-01T09:22:25;4.60;99.90
16781;DHT22;8507;50.056;8.248;2023-03-01T09:24:51;4.70;99.90
16781;DHT22;8507;50.056;8.248;2023-03-01T09:27:16;4.80;99.90
16781;DHT22;8507;50.056;8.248;2023-03-01T09:29:44;4.90;99.90
16781;DHT22;8507;50.056;8.248;2023-03-01T09:32:10;4.70;99.90
16781;DHT22;8507;50.056;8.248;2023-03-01T09:34:36;5.00;99.90
16781;DHT22;8507;50.056;8.248;2023-03-01T09:37:22;5.00;99.90
16781;DHT22;8507;50.056;8.248;2023-03-01T09:39:47;5.30;99.90
16781;DHT22;8507;50.056;8.248;2023-03-01T09:42:13;5.30;99.90
16781;DHT22;8507;50.056;8.248;2023-03-01T09:44:59;5.60;99.90
16781;DHT22;8507;50.056;8.248;2023-03-01T09:47:35;5.40;99.90
16781;DHT22;8507;50.056;8.248;2023-03-01T09:50:16;5.30;99.90
16781;DHT22;8507;50.056;8.248;2023-03-01T09:55:13;5.40;99.90
16781;DHT22;8507;50.056;8.248;2023-03-01T09:57:47;5.60;99.90
16781;DHT22;8507;50.056;8.248;2023-03-01T10:02:49;5.70;99.90
16781;DHT22;8507;50.056;8.248;2023-03-01T10:10:38;6.10;99.90
16781;DHT22;8507;50.056;8.248;2023-03-01T10:13:19;6.40;99.90
16781;DHT22;8507;50.056;8.248;2023-03-01T10:15:58;6.60;99.90
16781;DHT22;8507;50.056;8.248;2023-03-01T10:18:29;6.50;99.90
16781;DHT22;8507;50.056;8.248;2023-03-01T10:21:00;6.30;99.90
16781;DHT22;8507;50.056;8.248;2023-03-01T10:23:30;6.20;99.90
16781;DHT22;8507;50.056;8.248;2023-03-01T10:31:15;6.60;99.90
16781;DHT22;8507;50.056;8.248;2023-03-01T10:33:43;6.60;99.90
16781;DHT22;8507;50.056;8.248;2023-03-01T10:36:09;6.30;99.90
16781;DHT22;8507;50.056;8.248;2023-03-01T10:38:56;6.40;99.90
16781;DHT22;8507;50.056;8.248;2023-03-01T10:41:24;6.60;99.90
16781;DHT22;8507;50.056;8.248;2023-03-01T10:51:35;6.60;99.90
16781;DHT22;8507;50.056;8.248;2023-03-01T10:54:01;6.20;99.90
16781;DHT22;8507;50.056;8.248;2023-03-01T10:56:27;6.70;99.90
16781;DHT22;8507;50.056;8.248;2023-03-01T10:59:02;6.50;99.90
16781;DHT22;8507;50.056;8.248;2023-03-01T11:01:33;6.80;99.90
16781;DHT22;8507;50.056;8.248;2023-03-01T11:06:35;6.60;99.90
16781;DHT22;8507;50.056;8.248;2023-03-01T11:09:22;7.00;99.90
16781;DHT22;8507;50.056;8.248;2023-03-01T11:12:00;6.90;99.90
16781;DHT22;8507;50.056;8.248;2023-03-01T11:14:50;7.10;99.90
16781;DHT22;8507;50.056;8.248;2023-03-01T11:17:23;6.80;99.90
16781;DHT22;8507;50.056;8.248;2023-03-01T11:20:23;7.00;99.90
16781;DHT22;8507;50.056;8.248;2023-03-01T11:22:56;7.20;99.90
16781;DHT22;8507;50.056;8.248;2023-03-01T11:25:36;7.20;99.90
16781;DHT22;8507;50.056;8.248;2023-03-01T11:28:04;7.20;99.90
16781;DHT22;8507;50.056;8.248;2023-03-01T11:30:57;7.50;99.90
16781;DHT22;8507;50.056;8.248;2023-03-01T11:33:33;7.20;99.90
16781;DHT22;8507;50.056;8.248;2023-03-01T11:36:05;7.10;99.90
16781;DHT22;8507;50.056;8.248;2023-03-01T11:38:34;7.40;99.90
16781;DHT22;8507;50.056;8.248;2023-03-01T11:41:21;7.40;99.90
16781;DHT22;8507;50.056;8.248;2023-03-01T11:43:52;7.70;99.90
16781;DHT22;8507;50.056;8.248;2023-03-01T12:00:51;7.70;99.90
16781;DHT22;8507;50.056;8.248;2023-03-01T12:03:30;7.90;99.90
16781;DHT22;8507;50.056;8.248;2023-03-01T12:08:51;8.20;99.90
16781;DHT22;8507;50.056;8.248;2023-03-01T12:19:46;8.20;99.90
16781;DHT22;8507;50.056;8.248;2023-03-01T12:25:22;8.30;99.90
16781;DHT22;8507;50.056;8.248;2023-03-01T12:39:01;8.50;99.90
16781;DHT22;8507;50.056;8.248;2023-03-01T12:41:41;9.00;99.90
16781;DHT22;8507;50.056;8.248;2023-03-01T12:47:11;8.70;99.90
16781;DHT22;8507;50.056;8.248;2023-03-01T12:49:44;8.60;99.90
16781;DHT22;8507;50.056;8.248;2023-03-01T12:52:35;8.60;99.90
16781;DHT22;8507;50.056;8.248;2023-03-01T12:55:02;8.70;99.90
16781;DHT22;8507;50.056;8.248;2023-03-01T12:57:46;8.70;99.90
16781;DHT22;8507;50.056;8.248;2023-03-01T13:00:38;8.60;99.90
16781;DHT22;8507;50.056;8.248;2023-03-01T13:05:59;8.80;99.90
16781;DHT22;8507;50.056;8.248;2023-03-01T13:08:36;8.80;99.90
16781;DHT22;8507;50.056;8.248;2023-03-01T13:11:05;8.80;99.90
16781;DHT22;8507;50.056;8.248;2023-03-01T13:13:32;9.00;99.90
16781;DHT22;8507;50.056;8.248;2023-03-01T13:16:22;9.00;99.90
16781;DHT22;8507;50.056;8.248;2023-03-01T13:21:32;8.70;99.90
16781;DHT22;8507;50.056;8.248;2023-03-01T13:23:58;9.10;99.90
16781;DHT22;8507;50.056;8.248;2023-03-01T13:26:23;9.10;99.90
16781;DHT22;8507;50.056;8.248;2023-03-01T13:28:57;9.20;99.90
16781;DHT22;8507;50.056;8.248;2023-03-01T13:39:01;9.10;99.90
16781;DHT22;8507;50.056;8.248;2023-03-01T13:49:56;9.00;99.90
16781;DHT22;8507;50.056;8.248;2023-03-01T13:52:39;9.10;99.90
16781;DHT22;8507;50.056;8.248;2023-03-01T13:55:36;9.00;99.90
16781;DHT22;8507;50.056;8.248;2023-03-01T13:58:12;9.00;99.90
16781;DHT22;8507;50.056;8.248;2023-03-01T14:00:40;8.90;99.90
16781;DHT22;8507;50.056;8.248;2023-03-01T14:03:18;9.00;99.90
16781;DHT22;8507;50.056;8.248;2023-03-01T14:08:25;9.00;99.90
16781;DHT22;8507;50.056;8.248;2023-03-01T14:16:36;9.30;99.90
16781;DHT22;8507;50.056;8.248;2023-03-01T14:19:20;9.30;99.90
16781;DHT22;8507;50.056;8.248;2023-03-01T14:24:29;9.10;99.90
16781;DHT22;8507;50.056;8.248;2023-03-01T14:26:58;8.80;99.90
16781;DHT22;8507;50.056;8.248;2023-03-01T14:29:33;8.90;99.90
16781;DHT22;8507;50.056;8.248;2023-03-01T14:32:30;8.60;99.90
16781;DHT22;8507;50.056;8.248;2023-03-01T14:34:57;8.60;99.90
16781;DHT22;8507;50.056;8.248;2023-03-01T14:39:53;8.70;99.90
16781;DHT22;8507;50.056;8.248;2023-03-01T14:42:20;8.60;99.90
16781;DHT22;8507;50.056;8.248;2023-03-01T14:44:48;8.70;99.90
16781;DHT22;8507;50.056;8.248;2023-03-01T14:47:25;8.60;99.90
16781;DHT22;8507;50.056;8.248;2023-03-01T14:50:00;8.70;99.90
16781;DHT22;8507;50.056;8.248;2023-03-01T14:52:38;8.60;99.90
16781;DHT22;8507;50.056;8.248;2023-03-01T14:55:09;8.50;99.90
16781;DHT22;8507;50.056;8.248;2023-03-01T14:57:43;8.50;99.90
16781;DHT22;8507;50.056;8.248;2023-03-01T15:00:25;8.30;99.90
16781;DHT22;8507;50.056;8.248;2023-03-01T15:02:53;8.50;99.90
16781;DHT22;8507;50.056;8.248;2023-03-01T15:05:31;8.50;99.90
16781;DHT22;8507;50.056;8.248;2023-03-01T15:07:59;8.60;99.90
16781;DHT22;8507;50.056;8.248;2023-03-01T15:10:36;8.60;99.90
16781;DHT22;8507;50.056;8.248;2023-03-01T15:13:22;8.70;99.90
16781;DHT22;8507;50.056;8.248;2023-03-01T15:15:49;8.50;99.90
16781;DHT22;8507;50.056;8.248;2023-03-01T15:18:21;8.50;99.90
16781;DHT22;8507;50.056;8.248;2023-03-01T15:20:48;8.60;99.90
16781;DHT22;8507;50.056;8.248;2023-03-01T15:23:22;8.30;99.90
16781;DHT22;8507;50.056;8.248;2023-03-01T15:25:48;8.30;99.90
16781;DHT22;8507;50.056;8.248;2023-03-01T15:28:30;8.20;99.90
16781;DHT22;8507;50.056;8.248;2023-03-01T15:31:03;8.30;99.90
16781;DHT22;8507;50.056;8.248;2023-03-01T15:33:35;8.40;99.90
16781;DHT22;8507;50.056;8.248;2023-03-01T15:36:49;8.30;99.90
16781;DHT22;8507;50.056;8.248;2023-03-01T15:38:52;8.30;99.90
16781;DHT22;8507;50.056;8.248;2023-03-01T15:41:26;8.30;99.90
16781;DHT22;8507;50.056;8.248;2023-03-01T15:43:53;8.30;99.90
16781;DHT22;8507;50.056;8.248;2023-03-01T15:46:33;8.10;99.90
16781;DHT22;8507;50.056;8.248;2023-03-01T15:49:02;8.10;99.90
16781;DHT22;8507;50.056;8.248;2023-03-01T15:51:35;8.10;99.90
16781;DHT22;8507;50.056;8.248;2023-03-01T15:54:22;8.00;99.90
16781;DHT22;8507;50.056;8.248;2023-03-01T15:56:48;7.90;99.90
16781;DHT22;8507;50.056;8.248;2023-03-01T15:59:14;7.90;99.90
16781;DHT22;8507;50.056;8.248;2023-03-01T16:01:41;7.80;99.90
16781;DHT22;8507;50.056;8.248;2023-03-01T16:04:06;7.80;99.90
16781;DHT22;8507;50.056;8.248;2023-03-01T16:06:32;7.70;99.90
16781;DHT22;8507;50.056;8.248;2023-03-01T16:08:58;7.60;99.90
16781;DHT22;8507;50.056;8.248;2023-03-01T16:11:23;7.60;99.90
16781;DHT22;8507;50.056;8.248;2023-03-01T16:13:49;7.50;99.90
16781;DHT22;8507;50.056;8.248;2023-03-01T16:16:15;7.30;99.90
16781;DHT22;8507;50.056;8.248;2023-03-01T16:18:43;7.30;99.90
16781;DHT22;8507;50.056;8.248;2023-03-01T16:21:24;7.20;99.90
16781;DHT22;8507;50.056;8.248;2023-03-01T16:23:51;7.10;99.90
16781;DHT22;8507;50.056;8.248;2023-03-01T16:26:17;7.00;99.90
16781;DHT22;8507;50.056;8.248;2023-03-01T16:28:44;7.00;99.90
16781;DHT22;8507;50.056;8.248;2023-03-01T16:31:11;6.90;99.90
16781;DHT22;8507;50.056;8.248;2023-03-01T16:33:39;6.90;99.90
16781;DHT22;8507;50.056;8.248;2023-03-01T16:36:09;6.80;99.90
16781;DHT22;8507;50.056;8.248;2023-03-01T16:38:35;6.80;99.90
16781;DHT22;8507;50.056;8.248;2023-03-01T16:41:01;6.70;99.90
16781;DHT22;8507;50.056;8.248;2023-03-01T16:43:27;6.60;99.90
16781;DHT22;8507;50.056;8.248;2023-03-01T16:45:52;6.60;99.90
16781;DHT22;8507;50.056;8.248;2023-03-01T16:48:18;6.50;99.90
16781;DHT22;8507;50.056;8.248;2023-03-01T16:50:44;6.50;99.90
16781;DHT22;8507;50.056;8.248;2023-03-01T16:53:09;6.40;99.90
16781;DHT22;8507;50.056;8.248;2023-03-01T16:55:35;6.40;99.90
16781;DHT22;8507;50.056;8.248;2023-03-01T16:58:01;6.40;99.90
16781;DHT22;8507;50.056;8.248;2023-03-01T17:00:27;6.30;99.90
16781;DHT22;8507;50.056;8.248;2023-03-01T17:02:53;6.20;99.90
16781;DHT22;8507;50.056;8.248;2023-03-01T17:05:19;6.20;99.90
16781;DHT22;8507;50.056;8.248;2023-03-01T17:07:46;6.10;99.90
16781;DHT22;8507;50.056;8.248;2023-03-01T17:10:12;6.10;99.90
16781;DHT22;8507;50.056;8.248;2023-03-01T17:12:38;6.00;99.90
16781;DHT22;8507;50.056;8.248;2023-03-01T17:15:04;6.00;99.90
16781;DHT22;8507;50.056;8.248;2023-03-01T17:17:31;5.80;99.90
16781;DHT22;8507;50.056;8.248;2023-03-01T17:19:56;5.80;99.90
16781;DHT22;8507;50.056;8.248;2023-03-01T17:22:22;5.80;99.90
16781;DHT22;8507;50.056;8.248;2023-03-01T17:24:48;5.70;99.90
16781;DHT22;8507;50.056;8.248;2023-03-01T17:27:13;5.70;99.90
16781;DHT22;8507;50.056;8.248;2023-03-01T17:29:40;5.70;99.90
16781;DHT22;8507;50.056;8.248;2023-03-01T17:32:07;5.70;99.90
16781;DHT22;8507;50.056;8.248;2023-03-01T17:34:33;5.70;99.90
16781;DHT22;8507;50.056;8.248;2023-03-01T17:36:59;5.60;99.90
16781;DHT22;8507;50.056;8.248;2023-03-01T17:39:25;5.60;99.90
16781;DHT22;8507;50.056;8.248;2023-03-01T17:41:55;5.50;99.90
16781;DHT22;8507;50.056;8.248;2023-03-01T17:44:20;5.50;99.90
16781;DHT22;8507;50.056;8.248;2023-03-01T17:46:46;5.50;99.90
16781;DHT22;8507;50.056;8.248;2023-03-01T17:49:12;5.40;99.90
16781;DHT22;8507;50.056;8.248;2023-03-01T17:51:37;5.40;99.90
16781;DHT22;8507;50.056;8.248;2023-03-01T17:54:03;5.40;99.90
16781;DHT22;8507;50.056;8.248;2023-03-01T17:56:29;5.30;99.90
16781;DHT22;8507;50.056;8.248;2023-03-01T17:58:56;5.30;99.90
16781;DHT22;8507;50.056;8.248;2023-03-01T18:01:22;5.30;99.90
16781;DHT22;8507;50.056;8.248;2023-03-01T18:03:50;5.30;99.90